Time;durP1;ratioP1;P1;durP2;ratioP2;P2;SDS_P1;SDS_P2;PMS_P1;PMS_P2;Temp;Humidity;BMP_temperature;BMP_pressure;BME280_temperature;BME280_humidity;BME280_pressure;Samples;Min_cycle;Max_cycle;Signal;HPM_P1;HPM_P2
2021/09/18 00:00:08;;;;;;;11.13;3.80;;;16.90;63.30;;;;;;5040662;28;20127;-71
2021/09/18 00:02:35;;;;;;;14.25;4.00;;;16.90;63.40;;;;;;5043570;28;20480;-71
2021/09/18 00:05:01;;;;;;;10.48;3.30;;;16.80;63.50;;;;;;5046889;28;20029;-71
2021/09/18 00:07:29;;;;;;;12.73;4.53;;;16.80;63.60;;;;;;5042993;28;20032;-71
2021/09/18 00:09:55;;;;;;;9.40;3.78;;;16.80;63.70;;;;;;5038607;28;20025;-71
2021/09/18 00:12:22;;;;;;;14.45;3.88;;;16.80;63.80;;;;;;5038513;28;20078;-71
2021/09/18 00:14:48;;;;;;;11.65;3.80;;;16.70;63.80;;;;;;5046845;28;20116;-71
2021/09/18 00:17:15;;;;;;;14.93;4.95;;;16.70;64.00;;;;;;5043622;28;20021;-71
2021/09/18 00:19:41;;;;;;;15.82;4.03;;;16.70;64.20;;;;;;5039983;28;20082;-71
2021/09/18 00:22:08;;;;;;;14.23;3.67;;;16.60;64.30;;;;;;5045451;28;20096;-71
2021/09/18 00:24:34;;;;;;;11.45;3.72;;;16.60;64.50;;;;;;5042545;28;20376;-71
2021/09/18 00:27:01;;;;;;;12.70;4.03;;;16.60;64.60;;;;;;5042577;28;20832;-70
2021/09/18 00:29:27;;;;;;;18.60;3.92;;;16.60;64.80;;;;;;5048110;28;20083;-71
2021/09/18 00:31:54;;;;;;;18.58;5.15;;;16.50;64.80;;;;;;5051550;28;20022;-70
2021/09/18 00:34:20;;;;;;;11.45;3.30;;;16.50;64.90;;;;;;5048949;28;20102;-71
2021/09/18 00:36:47;;;;;;;11.57;3.95;;;16.50;65.00;;;;;;5042015;28;20022;-71
2021/09/18 00:39:13;;;;;;;17.27;4.97;;;16.50;65.10;;;;;;5042537;28;20025;-72
2021/09/18 00:41:40;;;;;;;14.98;3.95;;;16.40;65.00;;;;;;5047283;28;20020;-72
2021/09/18 00:44:07;;;;;;;13.07;3.03;;;16.40;65.10;;;;;;5041618;28;20025;-72
2021/09/18 00:47:13;;;;;;;12.30;3.30;;;16.40;65.20;;;;;;5046818;28;20106;-71
2021/09/18 00:50:19;;;;;;;8.65;3.75;;;16.40;65.20;;;;;;5048343;28;20386;-71
2021/09/18 00:53:25;;;;;;;16.83;3.70;;;16.30;65.30;;;;;;5048128;28;20034;-71
2021/09/18 00:55:52;;;;;;;14.38;3.80;;;16.30;65.30;;;;;;5050238;28;20041;-71
2021/09/18 00:58:18;;;;;;;6.47;3.17;;;16.30;65.50;;;;;;5048375;28;20103;-70
2021/09/18 01:00:45;;;;;;;13.10;4.03;;;16.30;65.40;;;;;;5049952;28;20099;-71
2021/09/18 01:03:11;;;;;;;9.52;3.28;;;16.20;65.40;;;;;;5047206;28;20021;-70
2021/09/18 01:05:40;;;;;;;8.85;3.22;;;16.20;65.50;;;;;;5044560;28;20041;-70
2021/09/18 01:08:10;;;;;;;22.55;4.55;;;16.20;65.50;;;;;;5049256;28;20013;-71
2021/09/18 01:10:37;;;;;;;12.70;3.72;;;16.10;65.60;;;;;;5048791;28;20089;-70
2021/09/18 01:13:12;;;;;;;12.60;3.60;;;16.10;65.70;;;;;;5046938;28;20066;-70
2021/09/18 01:15:40;;;;;;;14.98;3.45;;;16.00;65.80;;;;;;5049515;28;20028;-70
2021/09/18 01:18:07;;;;;;;10.57;3.25;;;16.00;66.00;;;;;;5046811;28;20079;-70
2021/09/18 01:20:35;;;;;;;9.52;3.00;;;16.00;66.30;;;;;;5048421;28;20104;-70
2021/09/18 01:23:03;;;;;;;13.05;2.95;;;16.00;66.60;;;;;;5048300;28;20013;-70
2021/09/18 01:25:32;;;;;;;11.32;2.95;;;16.00;66.50;;;;;;5046420;28;20021;-70
2021/09/18 01:27:59;;;;;;;11.27;3.17;;;16.00;66.50;;;;;;5044393;28;20013;-71
2021/09/18 01:30:28;;;;;;;9.10;3.75;;;16.00;66.40;;;;;;5046037;28;20433;-71
2021/09/18 01:32:56;;;;;;;9.77;3.13;;;16.00;66.40;;;;;;5049764;28;20033;-70
2021/09/18 01:35:23;;;;;;;14.02;4.68;;;16.00;66.40;;;;;;5043820;28;20021;-70
2021/09/18 01:37:50;;;;;;;15.25;4.15;;;15.90;66.40;;;;;;5045144;28;20543;-71
2021/09/18 01:40:28;;;;;;;9.35;3.92;;;15.90;66.60;;;;;;5044528;28;20022;-71
2021/09/18 01:42:56;;;;;;;9.60;3.60;;;15.90;66.70;;;;;;5044158;28;20117;-71
2021/09/18 01:45:23;;;;;;;10.18;3.90;;;15.90;66.80;;;;;;5049006;28;20025;-70
2021/09/18 01:47:52;;;;;;;15.43;3.50;;;15.90;66.90;;;;;;5047770;28;20014;-71
2021/09/18 01:50:47;;;;;;;12.43;4.35;;;15.90;66.80;;;;;;5050018;28;20024;-71
2021/09/18 01:53:18;;;;;;;13.18;4.07;;;15.90;66.80;;;;;;5046308;28;20029;-71
2021/09/18 01:55:45;;;;;;;14.63;4.75;;;15.90;66.70;;;;;;5048302;28;20019;-71
2021/09/18 01:58:12;;;;;;;13.45;4.10;;;15.90;66.80;;;;;;5057499;28;20075;-71
2021/09/18 02:00:45;;;;;;;17.80;5.20;;;15.90;66.80;;;;;;5046591;28;20045;-71
2021/09/18 02:03:11;;;;;;;16.00;4.53;;;16.00;66.80;;;;;;5046525;28;20029;-71
2021/09/18 02:05:38;;;;;;;10.02;3.10;;;15.90;67.20;;;;;;5050368;28;20078;-71
2021/09/18 02:08:04;;;;;;;9.55;2.78;;;16.00;66.50;;;;;;5043126;28;20044;-71
2021/09/18 02:10:32;;;;;;;11.43;3.70;;;15.90;66.20;;;;;;5047199;28;20428;-71
2021/09/18 02:13:07;;;;;;;8.05;3.75;;;15.90;66.00;;;;;;5045377;28;20384;-70
2021/09/18 02:15:34;;;;;;;13.30;3.38;;;15.90;65.90;;;;;;5045377;28;20028;-70
2021/09/18 02:18:00;;;;;;;11.30;2.95;;;15.90;65.80;;;;;;5045773;28;20475;-71
2021/09/18 02:20:29;;;;;;;6.75;2.33;;;15.90;65.70;;;;;;5045994;28;20025;-70
2021/09/18 02:22:57;;;;;;;11.63;2.53;;;15.90;65.50;;;;;;5047808;28;20100;-71
2021/09/18 02:25:24;;;;;;;12.18;2.83;;;15.90;65.40;;;;;;5051983;28;20024;-71
2021/09/18 02:27:51;;;;;;;10.20;3.22;;;15.90;65.40;;;;;;5045007;28;20031;-71
2021/09/18 02:30:22;;;;;;;11.13;4.18;;;15.80;65.40;;;;;;5042263;28;20094;-71
2021/09/18 02:32:48;;;;;;;13.63;4.25;;;15.80;65.30;;;;;;5045081;28;20017;-71
2021/09/18 02:35:17;;;;;;;11.90;3.60;;;15.80;65.20;;;;;;5045377;28;20468;-71
2021/09/18 02:37:44;;;;;;;9.70;2.83;;;15.80;65.20;;;;;;5046865;28;20057;-72
2021/09/18 02:40:14;;;;;;;12.10;4.25;;;15.80;65.20;;;;;;5047103;28;20021;-71
2021/09/18 02:42:48;;;;;;;11.27;3.80;;;15.70;65.20;;;;;;5045246;28;20094;-70
2021/09/18 02:45:17;;;;;;;11.20;3.55;;;15.70;65.30;;;;;;5045434;28;20040;-71
2021/09/18 02:47:44;;;;;;;12.35;3.30;;;15.70;65.30;;;;;;5046893;28;20029;-71
2021/09/18 02:50:14;;;;;;;13.00;4.28;;;15.60;65.10;;;;;;5049733;28;20028;-71
2021/09/18 02:52:41;;;;;;;7.88;3.75;;;15.70;65.10;;;;;;5041342;28;20055;-71
2021/09/18 02:55:08;;;;;;;10.45;3.88;;;15.60;64.90;;;;;;5046575;28;20037;-71
2021/09/18 02:57:35;;;;;;;9.35;3.10;;;15.60;65.10;;;;;;5044698;28;20052;-71
2021/09/18 03:00:04;;;;;;;8.18;3.42;;;15.60;65.20;;;;;;5046529;28;20096;-70
2021/09/18 03:02:30;;;;;;;12.57;3.85;;;15.60;65.30;;;;;;5047286;28;20485;-70
2021/09/18 03:04:57;;;;;;;11.93;4.28;;;15.50;65.20;;;;;;5047227;28;20104;-70
2021/09/18 03:07:23;;;;;;;12.15;4.53;;;15.50;65.10;;;;;;5045055;28;20029;-71
2021/09/18 03:09:50;;;;;;;13.18;4.75;;;15.50;65.00;;;;;;5046640;28;20103;-70
2021/09/18 03:12:16;;;;;;;13.43;4.72;;;15.50;65.10;;;;;;5045520;28;20056;-71
2021/09/18 03:14:43;;;;;;;15.52;4.93;;;15.50;65.20;;;;;;5046498;28;20539;-70
2021/09/18 03:17:09;;;;;;;10.32;4.47;;;15.50;65.10;;;;;;5044348;28;20017;-71
2021/09/18 03:19:36;;;;;;;11.50;4.28;;;15.40;65.10;;;;;;5041468;28;20036;-70
2021/09/18 03:22:03;;;;;;;13.73;6.03;;;15.40;65.30;;;;;;5048025;28;20048;-71
2021/09/18 03:24:29;;;;;;;13.40;4.00;;;15.40;65.30;;;;;;5043263;28;20025;-70
2021/09/18 03:26:56;;;;;;;13.40;4.35;;;15.40;65.40;;;;;;5043208;28;20021;-71
2021/09/18 03:29:24;;;;;;;9.57;4.22;;;15.40;65.50;;;;;;5043287;28;20435;-70
2021/09/18 03:31:50;;;;;;;8.48;3.65;;;15.30;65.60;;;;;;5044222;28;20025;-70
2021/09/18 03:34:17;;;;;;;11.98;3.75;;;15.40;65.70;;;;;;5045304;28;20020;-70
2021/09/18 03:36:43;;;;;;;11.25;3.88;;;15.30;65.40;;;;;;5046203;28;20025;-70
2021/09/18 03:39:10;;;;;;;13.55;4.50;;;15.40;65.30;;;;;;5042232;28;20021;-71
2021/09/18 03:41:36;;;;;;;14.27;3.97;;;15.40;65.40;;;;;;5047894;28;20032;-71
2021/09/18 03:44:03;;;;;;;9.10;3.40;;;15.40;65.40;;;;;;5043011;28;20022;-71
2021/09/18 03:46:30;;;;;;;8.70;3.75;;;15.40;65.30;;;;;;5050058;28;20043;-70
2021/09/18 03:48:56;;;;;;;11.25;4.15;;;15.40;65.20;;;;;;5047531;28;20787;-70
2021/09/18 03:51:22;;;;;;;14.13;4.32;;;15.30;65.20;;;;;;5045180;28;20255;-70
2021/09/18 03:53:49;;;;;;;12.48;5.47;;;15.30;65.10;;;;;;5042964;28;20404;-70
2021/09/18 03:56:55;;;;;;;11.32;3.70;;;15.30;65.20;;;;;;5045253;28;20507;-70
2021/09/18 04:00:01;;;;;;;11.88;4.45;;;15.40;65.30;;;;;;5046136;28;20041;-70
2021/09/18 04:02:27;;;;;;;16.45;4.07;;;15.30;65.20;;;;;;5043232;28;20032;-70
2021/09/18 04:04:54;;;;;;;12.57;4.03;;;15.30;64.90;;;;;;5044169;28;20120;-70
2021/09/18 04:07:20;;;;;;;10.85;4.30;;;15.30;64.80;;;;;;5043097;28;20032;-70
2021/09/18 04:09:47;;;;;;;14.90;4.55;;;15.20;64.80;;;;;;5044608;28;20059;-70
2021/09/18 04:12:14;;;;;;;12.18;4.22;;;15.20;64.90;;;;;;5041104;28;20503;-70
2021/09/18 04:14:41;;;;;;;10.43;5.18;;;15.20;65.10;;;;;;5038900;28;20675;-70
2021/09/18 04:17:07;;;;;;;15.88;6.38;;;15.20;65.10;;;;;;5042740;28;20032;-70
2021/09/18 04:19:34;;;;;;;15.75;6.13;;;15.20;65.20;;;;;;5047022;28;20060;-70
2021/09/18 04:22:01;;;;;;;18.60;4.65;;;15.10;65.00;;;;;;5049813;28;20108;-70
2021/09/18 04:24:28;;;;;;;16.55;4.93;;;15.10;65.00;;;;;;5037903;28;20629;-70
2021/09/18 04:26:54;;;;;;;17.42;5.72;;;15.10;65.10;;;;;;5042976;28;20005;-70
2021/09/18 04:29:21;;;;;;;10.18;5.10;;;15.10;65.20;;;;;;5045918;28;20025;-70
2021/09/18 04:31:47;;;;;;;9.27;4.18;;;15.10;65.30;;;;;;5040751;28;20170;-69
2021/09/18 04:34:14;;;;;;;21.00;4.07;;;15.10;65.20;;;;;;5042327;28;20044;-70
2021/09/18 04:36:40;;;;;;;10.05;4.47;;;15.10;65.20;;;;;;5046128;28;20022;-71
2021/09/18 04:39:07;;;;;;;13.10;4.85;;;15.10;65.20;;;;;;5041310;28;20149;-70
2021/09/18 04:41:33;;;;;;;10.57;3.50;;;15.10;65.00;;;;;;5045697;28;20484;-70
2021/09/18 04:44:00;;;;;;;10.00;4.55;;;15.10;65.00;;;;;;5048216;28;20065;-72
2021/09/18 04:46:26;;;;;;;9.60;3.88;;;15.10;64.90;;;;;;5044812;28;20021;-70
2021/09/18 04:48:53;;;;;;;12.35;4.00;;;15.10;65.10;;;;;;5043629;28;20431;-71
2021/09/18 04:51:19;;;;;;;7.28;3.05;;;15.20;64.80;;;;;;5046175;28;20420;-70
2021/09/18 04:53:46;;;;;;;11.40;3.15;;;15.10;64.60;;;;;;5043497;28;20029;-70
2021/09/18 04:56:12;;;;;;;11.23;3.90;;;15.20;64.70;;;;;;5044127;28;20102;-70
2021/09/18 04:58:39;;;;;;;14.43;6.05;;;15.10;64.80;;;;;;5039269;28;20013;-71
2021/09/18 05:01:08;;;;;;;18.83;12.95;;;15.10;64.60;;;;;;5036506;28;20558;-70
2021/09/18 05:03:34;;;;;;;13.13;3.95;;;15.10;64.70;;;;;;5044341;28;20412;-70
2021/09/18 05:06:01;;;;;;;12.73;3.70;;;15.10;64.50;;;;;;5045975;28;20005;-74
2021/09/18 05:08:27;;;;;;;12.00;3.30;;;15.20;64.30;;;;;;5042058;28;20075;-70
2021/09/18 05:10:54;;;;;;;8.73;3.17;;;15.20;64.20;;;;;;5041289;28;20035;-70
2021/09/18 05:14:00;;;;;;;20.75;4.40;;;15.20;64.10;;;;;;5044777;28;20624;-71
2021/09/18 05:17:06;;;;;;;7.05;3.67;;;15.20;64.00;;;;;;5042930;28;20021;-71
2021/09/18 05:20:12;;;;;;;30.60;18.80;;;15.20;63.80;;;;;;5036763;28;20029;-69
2021/09/18 05:23:18;;;;;;;14.75;5.78;;;15.20;64.00;;;;;;5040073;28;20039;-70
2021/09/18 05:26:24;;;;;;;8.85;3.47;;;15.20;63.80;;;;;;5037396;28;20044;-70
2021/09/18 05:28:52;;;;;;;13.95;3.78;;;15.30;63.60;;;;;;5037599;28;20395;-70
2021/09/18 05:31:19;;;;;;;14.57;3.00;;;15.30;63.60;;;;;;5043833;28;20510;-71
2021/09/18 05:33:45;;;;;;;9.35;4.70;;;15.30;63.50;;;;;;5043713;28;20082;-72
2021/09/18 05:36:12;;;;;;;6.22;2.70;;;15.30;63.50;;;;;;5042842;28;20025;-70
2021/09/18 05:38:38;;;;;;;12.52;3.72;;;15.30;63.70;;;;;;5043834;28;20115;-71
2021/09/18 05:41:05;;;;;;;12.85;2.90;;;15.40;63.40;;;;;;5041574;28;20021;-71
2021/09/18 05:43:31;;;;;;;8.32;3.20;;;15.40;63.10;;;;;;5044182;28;20974;-70
2021/09/18 05:45:58;;;;;;;9.20;3.45;;;15.40;63.20;;;;;;5038343;28;20018;-70
2021/09/18 05:48:25;;;;;;;26.42;14.85;;;15.40;62.80;;;;;;5041971;28;20028;-70
2021/09/18 05:50:51;;;;;;;37.33;21.20;;;15.50;62.40;;;;;;5046614;28;20025;-71
2021/09/18 05:53:17;;;;;;;14.57;7.30;;;15.50;62.10;;;;;;5042437;28;20013;-70
2021/09/18 05:55:44;;;;;;;12.80;4.28;;;15.60;62.00;;;;;;5040370;28;20028;-70
2021/09/18 05:58:10;;;;;;;11.25;3.58;;;15.60;61.70;;;;;;5044446;28;20009;-71
2021/09/18 06:00:37;;;;;;;10.35;3.65;;;15.60;61.70;;;;;;5045621;28;20765;-69
2021/09/18 06:03:03;;;;;;;16.05;4.50;;;15.70;62.20;;;;;;5044745;28;20016;-69
2021/09/18 06:05:30;;;;;;;11.80;3.72;;;15.70;62.20;;;;;;5040844;28;20510;-72
2021/09/18 06:07:56;;;;;;;9.40;2.90;;;15.70;62.40;;;;;;5049130;28;20400;-70
2021/09/18 06:10:23;;;;;;;13.15;3.75;;;15.70;62.00;;;;;;5041666;28;20391;-69
2021/09/18 06:12:49;;;;;;;13.77;3.50;;;15.80;62.10;;;;;;5043717;28;20017;-68
2021/09/18 06:15:16;;;;;;;9.40;3.22;;;15.80;61.80;;;;;;5045903;28;20048;-69
2021/09/18 06:17:42;;;;;;;6.38;2.50;;;15.90;61.20;;;;;;5048656;28;20025;-68
2021/09/18 06:20:09;;;;;;;9.45;2.28;;;15.90;61.20;;;;;;5044482;28;20078;-71
2021/09/18 06:22:36;;;;;;;10.77;4.95;;;15.90;61.20;;;;;;5050818;28;20116;-70
2021/09/18 06:25:02;;;;;;;13.18;6.75;;;16.00;61.40;;;;;;5046947;28;20087;-69
2021/09/18 06:27:29;;;;;;;9.07;3.95;;;16.00;61.90;;;;;;5047741;28;20034;-70
2021/09/18 06:29:55;;;;;;;11.65;3.28;;;16.10;62.20;;;;;;5048042;28;20024;-69
2021/09/18 06:32:22;;;;;;;5.97;2.80;;;16.10;62.00;;;;;;5044106;28;20162;-69
2021/09/18 06:34:49;;;;;;;9.18;3.53;;;16.20;62.10;;;;;;5048570;28;20025;-68
2021/09/18 06:37:15;;;;;;;10.68;3.00;;;16.20;61.70;;;;;;5042680;28;20021;-67
2021/09/18 06:39:41;;;;;;;14.57;3.53;;;16.30;60.90;;;;;;5044911;28;20021;-68
2021/09/18 06:42:08;;;;;;;6.63;2.40;;;16.40;61.40;;;;;;5045769;28;20048;-68
2021/09/18 06:44:38;;;;;;;6.68;3.10;;;16.40;61.30;;;;;;5044917;28;20032;-68
2021/09/18 06:47:05;;;;;;;8.63;2.63;;;16.50;60.80;;;;;;5046915;28;20029;-68
2021/09/18 06:49:31;;;;;;;6.55;2.45;;;16.50;59.70;;;;;;5043212;28;20059;-67
2021/09/18 06:51:57;;;;;;;8.98;4.22;;;16.60;59.00;;;;;;5043243;28;20033;-68
2021/09/18 06:54:24;;;;;;;9.23;2.78;;;16.70;58.80;;;;;;5045317;28;20096;-68
2021/09/18 06:56:50;;;;;;;9.80;2.58;;;16.70;58.50;;;;;;5041402;28;20021;-68
2021/09/18 06:59:17;;;;;;;11.20;4.03;;;16.70;58.40;;;;;;5042658;28;20041;-68
2021/09/18 07:01:43;;;;;;;9.52;3.40;;;16.80;58.40;;;;;;5042753;28;20477;-68
2021/09/18 07:04:10;;;;;;;8.05;2.28;;;16.90;58.10;;;;;;5050018;28;20013;-67
2021/09/18 07:06:36;;;;;;;9.43;3.05;;;16.90;57.80;;;;;;5043760;28;20021;-68
2021/09/18 07:09:03;;;;;;;13.35;2.63;;;17.00;57.90;;;;;;5044548;28;20025;-67
2021/09/18 07:11:30;;;;;;;8.32;2.60;;;17.10;57.60;;;;;;5047734;28;20036;-68
2021/09/18 07:13:56;;;;;;;4.90;2.80;;;17.10;56.40;;;;;;5048366;28;20561;-68
2021/09/18 07:16:23;;;;;;;11.05;3.78;;;17.20;56.50;;;;;;5032571;28;20376;-67
2021/09/18 07:18:49;;;;;;;9.35;3.50;;;17.30;56.00;;;;;;5043449;28;20025;-68
2021/09/18 07:21:16;;;;;;;6.50;2.13;;;17.40;55.10;;;;;;5050525;28;20094;-67
2021/09/18 07:23:42;;;;;;;6.70;2.70;;;17.50;55.10;;;;;;5044729;28;20098;-67
2021/09/18 07:26:11;;;;;;;9.65;3.13;;;17.60;55.40;;;;;;5046273;28;20017;-68
2021/09/18 07:28:37;;;;;;;5.68;2.55;;;17.60;54.60;;;;;;5047189;28;20029;-67
2021/09/18 07:31:03;;;;;;;9.98;3.50;;;17.70;54.30;;;;;;5044645;28;20056;-68
2021/09/18 07:33:30;;;;;;;9.38;3.00;;;17.80;53.80;;;;;;5045402;28;20025;-68
2021/09/18 07:35:56;;;;;;;5.90;2.33;;;17.90;53.90;;;;;;5044256;28;20029;-68
2021/09/18 07:38:23;;;;;;;7.88;2.47;;;18.00;53.70;;;;;;5047483;28;20087;-68
2021/09/18 07:40:54;;;;;;;5.80;2.15;;;18.10;52.40;;;;;;5042131;28;20029;-68
2021/09/18 07:43:21;;;;;;;9.40;3.10;;;18.20;51.10;;;;;;5041884;28;20017;-68
2021/09/18 07:45:47;;;;;;;7.93;2.38;;;18.30;51.00;;;;;;5044377;28;20110;-68
2021/09/18 07:48:14;;;;;;;8.90;3.28;;;18.40;50.50;;;;;;5045290;28;20009;-68
2021/09/18 07:50:40;;;;;;;5.88;2.10;;;18.60;50.10;;;;;;5047583;28;20040;-68
2021/09/18 07:53:07;;;;;;;7.70;1.88;;;18.70;49.90;;;;;;5048723;28;20115;-67
2021/09/18 07:55:34;;;;;;;18.05;3.63;;;18.80;48.20;;;;;;5042455;28;20021;-68
2021/09/18 07:58:03;;;;;;;10.43;2.75;;;18.90;49.10;;;;;;5045731;28;20021;-68
2021/09/18 08:00:29;;;;;;;9.93;2.53;;;19.00;50.30;;;;;;5042271;28;20127;-68
2021/09/18 08:02:56;;;;;;;6.70;3.00;;;19.20;48.50;;;;;;5039023;28;20087;-67
2021/09/18 08:05:23;;;;;;;10.68;2.83;;;19.30;47.20;;;;;;5050929;28;20036;-67
2021/09/18 08:07:50;;;;;;;5.90;2.05;;;19.40;47.20;;;;;;5045303;28;20445;-67
2021/09/18 08:10:16;;;;;;;9.23;2.53;;;19.60;45.40;;;;;;5042360;28;20033;-67
2021/09/18 08:12:48;;;;;;;5.15;2.72;;;19.70;43.90;;;;;;5038774;28;20100;-67
2021/09/18 08:15:16;;;;;;;6.43;2.42;;;19.90;43.90;;;;;;5046032;28;20392;-67
2021/09/18 08:17:45;;;;;;;12.20;3.03;;;20.00;43.40;;;;;;5045305;28;20025;-67
2021/09/18 08:20:13;;;;;;;8.90;2.97;;;20.10;44.80;;;;;;5044545;28;20424;-67
2021/09/18 08:22:40;;;;;;;9.00;3.95;;;20.20;45.00;;;;;;5047322;28;20035;-68
2021/09/18 08:25:08;;;;;;;11.50;3.45;;;20.30;45.80;;;;;;5044818;28;20583;-68
2021/09/18 08:27:35;;;;;;;13.80;3.75;;;20.40;46.20;;;;;;5046364;28;20694;-68
2021/09/18 08:30:02;;;;;;;9.80;3.90;;;20.40;46.50;;;;;;5045091;28;20072;-67
2021/09/18 08:32:29;;;;;;;17.05;4.32;;;20.50;46.40;;;;;;5047144;28;20013;-67
2021/09/18 08:34:56;;;;;;;10.93;3.60;;;20.60;46.00;;;;;;5042311;28;20119;-68
2021/09/18 08:37:22;;;;;;;12.07;3.80;;;20.70;45.90;;;;;;5044933;28;20023;-67
2021/09/18 08:39:49;;;;;;;7.53;3.83;;;20.70;46.00;;;;;;5045950;28;20057;-67
2021/09/18 08:42:16;;;;;;;6.78;3.00;;;20.80;45.10;;;;;;5048461;28;20499;-67
2021/09/18 08:44:43;;;;;;;7.90;3.30;;;20.80;44.90;;;;;;5043192;28;20068;-67
2021/09/18 08:47:13;;;;;;;10.63;4.82;;;20.90;44.40;;;;;;5048035;28;20048;-68
2021/09/18 08:49:41;;;;;;;9.35;4.05;;;20.90;44.50;;;;;;5046934;28;20018;-67
2021/09/18 08:52:08;;;;;;;10.98;3.75;;;21.00;44.20;;;;;;5048538;28;20464;-67
2021/09/18 08:54:44;;;;;;;4.55;3.13;;;21.10;44.40;;;;;;5044365;28;20471;-68
2021/09/18 08:57:12;;;;;;;11.68;4.00;;;21.20;43.60;;;;;;5041466;28;20067;-68
2021/09/18 08:59:39;;;;;;;8.27;4.40;;;21.40;43.20;;;;;;5046137;28;20044;-68
2021/09/18 09:02:30;;;;;;;7.60;3.45;;;21.50;42.40;;;;;;5047188;28;20025;-68
2021/09/18 09:05:08;;;;;;;8.68;3.63;;;21.60;42.00;;;;;;5046182;28;20108;-68
2021/09/18 09:07:35;;;;;;;10.63;3.40;;;21.60;41.30;;;;;;5043527;28;20016;-68
2021/09/18 09:10:06;;;;;;;10.70;2.90;;;21.70;41.60;;;;;;5050316;28;20049;-68
2021/09/18 09:12:38;;;;;;;9.70;3.50;;;21.80;41.30;;;;;;5051182;28;20017;-68
2021/09/18 09:15:08;;;;;;;11.40;3.60;;;21.90;40.90;;;;;;5046595;28;20021;-68
2021/09/18 09:17:36;;;;;;;7.43;3.30;;;22.00;40.60;;;;;;5050863;28;20032;-68
2021/09/18 09:20:04;;;;;;;10.13;3.15;;;22.10;41.00;;;;;;5042020;28;20041;-68
2021/09/18 09:22:47;;;;;;;9.38;3.38;;;22.20;41.00;;;;;;5048837;28;20025;-68
2021/09/18 09:25:33;;;;;;;7.82;2.47;;;22.30;40.90;;;;;;5047426;28;20040;-68
2021/09/18 09:28:31;;;;;;;5.57;3.28;;;22.50;40.80;;;;;;5048056;28;20058;-68
2021/09/18 09:31:16;;;;;;;8.80;2.60;;;22.60;40.50;;;;;;5044325;28;20545;-68
2021/09/18 09:33:58;;;;;;;;;;;22.70;40.60;;;;;;5049727;28;20023;-68
2021/09/18 09:36:25;;;;;;;12.95;3.67;;;22.90;40.40;;;;;;5045969;28;20051;-68
2021/09/18 09:39:00;;;;;;;6.55;2.58;;;23.00;39.60;;;;;;5044672;28;20022;-68
2021/09/18 09:41:33;;;;;;;5.65;2.50;;;23.10;40.10;;;;;;5045099;28;20025;-68
2021/09/18 09:44:01;;;;;;;9.05;2.45;;;23.20;40.40;;;;;;5046343;28;20044;-68
2021/09/18 09:46:28;;;;;;;7.88;2.03;;;23.30;40.80;;;;;;5044874;28;20029;-68
2021/09/18 09:49:11;;;;;;;4.22;1.98;;;23.40;40.90;;;;;;5050178;28;20483;-69
2021/09/18 09:51:39;;;;;;;5.18;2.55;;;23.40;40.60;;;;;;5040120;28;20043;-67
2021/09/18 09:54:16;;;;;;;6.07;2.40;;;23.50;39.30;;;;;;5047534;28;20021;-67
2021/09/18 09:56:43;;;;;;;8.23;2.20;;;23.60;39.40;;;;;;5045274;28;20022;-67
2021/09/18 09:59:09;;;;;;;9.57;2.80;;;23.70;38.30;;;;;;5050090;28;20050;-67
2021/09/18 10:01:36;;;;;;;5.82;2.10;;;23.80;36.70;;;;;;5040334;28;20097;-67
2021/09/18 10:04:03;;;;;;;7.03;2.50;;;24.00;36.60;;;;;;5048028;28;20032;-71
2021/09/18 10:06:30;;;;;;;12.00;5.53;;;24.10;37.50;;;;;;5050165;28;20025;-67
2021/09/18 10:08:58;;;;;;;10.30;5.97;;;24.10;37.70;;;;;;5051434;28;20032;-68
2021/09/18 10:11:31;;;;;;;6.57;3.22;;;24.10;37.00;;;;;;5045362;28;20044;-67
2021/09/18 10:14:00;;;;;;;6.32;1.92;;;24.20;37.40;;;;;;5045824;28;20652;-73
2021/09/18 10:16:27;;;;;;;4.00;1.60;;;24.20;36.90;;;;;;5039305;28;20025;-75
2021/09/18 10:18:58;;;;;;;6.03;2.45;;;24.30;36.50;;;;;;5045258;28;20111;-73
2021/09/18 10:24:11;;;;;;;9.05;2.00;;;24.40;35.80;;;;;;5049625;28;20086;-70
2021/09/18 10:26:38;;;;;;;9.00;1.83;;;24.50;36.00;;;;;;5044573;28;20051;-72
2021/09/18 10:29:04;;;;;;;4.97;1.73;;;24.50;36.00;;;;;;5040791;28;20037;-68
2021/09/18 10:31:31;;;;;;;6.80;2.10;;;24.60;35.20;;;;;;5039788;28;20140;-68
2021/09/18 10:33:57;;;;;;;2.67;1.50;;;24.70;34.80;;;;;;5044773;28;20024;-70
2021/09/18 10:36:30;;;;;;;8.73;2.95;;;24.80;34.40;;;;;;5043901;28;20025;-71
2021/09/18 10:39:16;;;;;;;5.05;3.08;;;24.90;34.10;;;;;;5050894;28;20036;-70
2021/09/18 10:41:51;;;;;;;6.55;2.53;;;25.00;34.60;;;;;;5043546;28;20029;-64
2021/09/18 10:44:21;;;;;;;6.13;1.88;;;25.00;34.30;;;;;;5040110;28;20037;-70
2021/09/18 10:46:49;;;;;;;5.30;2.30;;;25.10;34.10;;;;;;5048605;28;20475;-70
2021/09/18 10:49:51;;;;;;;5.88;1.98;;;25.20;34.00;;;;;;5043152;28;20120;-69
2021/09/18 10:52:33;;;;;;;12.10;2.42;;;25.30;33.70;;;;;;5046244;28;20155;-71
2021/09/18 10:55:03;;;;;;;6.78;2.13;;;25.50;33.40;;;;;;5050520;28;20142;-71
2021/09/18 10:57:38;;;;;;;3.83;2.17;;;25.60;33.40;;;;;;5037498;28;20087;-70
2021/09/18 11:00:12;;;;;;;4.40;2.10;;;25.70;33.00;;;;;;5041013;28;20071;-67
2021/09/18 11:02:45;;;;;;;4.25;2.10;;;25.70;33.30;;;;;;5046519;28;20514;-70
2021/09/18 11:05:20;;;;;;;3.63;1.35;;;25.90;33.60;;;;;;5049210;28;20029;-68
2021/09/18 11:07:52;;;;;;;5.07;0.80;;;26.00;32.30;;;;;;5046886;28;20107;-69
2021/09/18 11:10:22;;;;;;;1.65;0.90;;;26.30;31.10;;;;;;5051191;28;20072;-73
2021/09/18 11:13:10;;;;;;;1.58;0.82;;;26.50;30.90;;;;;;5047692;28;20025;-69
2021/09/18 11:15:49;;;;;;;1.60;0.57;;;26.60;30.50;;;;;;5047626;28;20035;-68
2021/09/18 11:18:35;;;;;;;2.70;0.70;;;26.70;30.10;;;;;;5047780;28;20104;-70
2021/09/18 11:21:11;;;;;;;2.00;0.52;;;26.80;29.60;;;;;;5046575;28;20104;-71
2021/09/18 11:23:41;;;;;;;3.53;0.95;;;26.90;29.80;;;;;;5040519;28;20064;-70
2021/09/18 11:26:39;;;;;;;5.65;2.15;;;27.10;30.20;;;;;;5041680;28;20014;-68
2021/09/18 11:29:13;;;;;;;4.25;1.38;;;27.20;29.80;;;;;;5048452;28;20025;-68
2021/09/18 11:32:12;;;;;;;3.47;2.08;;;27.20;29.80;;;;;;5045999;28;20139;-69
2021/09/18 11:34:42;;;;;;;6.78;2.25;;;27.30;29.40;;;;;;5039907;28;20038;-67
2021/09/18 11:37:13;;;;;;;5.45;1.63;;;27.30;30.00;;;;;;5042849;28;20029;-68
2021/09/18 11:39:44;;;;;;;4.88;2.28;;;27.30;30.80;;;;;;5040121;28;20087;-69
2021/09/18 11:42:21;;;;;;;9.77;2.35;;;27.40;31.10;;;;;;5045589;28;20025;-69
2021/09/18 11:44:59;;;;;;;3.88;1.80;;;27.40;30.60;;;;;;5044962;28;20078;-69
2021/09/18 11:47:31;;;;;;;2.83;1.60;;;27.50;30.50;;;;;;5045329;28;20017;-69
2021/09/18 11:49:58;;;;;;;4.45;1.30;;;27.50;29.70;;;;;;5045025;28;20132;-68
2021/09/18 11:52:40;;;;;;;2.95;1.75;;;27.60;29.80;;;;;;5041570;28;20415;-67
2021/09/18 11:55:24;;;;;;;1.42;0.77;;;27.70;30.70;;;;;;5047156;28;20510;-68
2021/09/18 11:58:19;;;;;;;4.72;1.80;;;27.80;29.20;;;;;;5047745;28;20388;-69
2021/09/18 12:00:53;;;;;;;;;;;27.90;30.00;;;;;;5044154;28;20128;-70
2021/09/18 12:03:29;;;;;;;12.88;6.93;;;27.90;30.00;;;;;;5044920;28;19936;-67
2021/09/18 12:05:58;;;;;;;7.53;3.63;;;28.00;30.80;;;;;;5046884;28;20021;-67
2021/09/18 12:08:29;;;;;;;4.68;3.00;;;28.00;30.20;;;;;;5043216;28;20467;-67
2021/09/18 12:11:06;;;;;;;6.10;2.13;;;27.90;31.10;;;;;;5041944;28;20040;-67
2021/09/18 12:13:33;;;;;;;8.02;2.95;;;28.00;31.00;;;;;;5046947;28;20099;-66
2021/09/18 12:16:02;;;;;;;3.95;1.52;;;27.90;31.50;;;;;;5043616;28;20060;-68
2021/09/18 12:18:36;;;;;;;219.05;21.65;;;27.90;29.90;;;;;;5043102;28;20117;-68
2021/09/18 12:21:20;;;;;;;51.20;7.07;;;27.90;29.70;;;;;;5047048;28;20107;-68
2021/09/18 12:23:58;;;;;;;31.67;5.80;;;27.90;29.60;;;;;;5043217;28;20037;-67
2021/09/18 12:26:29;;;;;;;20.27;3.85;;;27.80;31.20;;;;;;5038210;28;20024;-66
2021/09/18 12:29:13;;;;;;;11.43;2.80;;;27.60;31.50;;;;;;5044598;28;20033;-65
2021/09/18 12:31:43;;;;;;;13.67;9.87;;;27.50;32.20;;;;;;5046863;28;20025;-69
2021/09/18 12:34:13;;;;;;;6.45;3.95;;;27.30;31.30;;;;;;5041978;28;20350;-69
2021/09/18 12:36:41;;;;;;;11.35;4.18;;;27.40;31.80;;;;;;5040865;28;20021;-69
2021/09/18 12:39:09;;;;;;;14.73;4.72;;;27.30;32.30;;;;;;5042395;28;20053;-68
2021/09/18 12:41:37;;;;;;;7.40;3.60;;;27.20;33.30;;;;;;5040763;28;20047;-67
2021/09/18 12:44:12;;;;;;;12.02;8.20;;;27.10;32.80;;;;;;5037520;28;20025;-68
2021/09/18 12:46:48;;;;;;;11.00;7.20;;;27.00;33.10;;;;;;5046948;28;20033;-66
2021/09/18 12:49:15;;;;;;;10.38;5.45;;;26.90;33.20;;;;;;5041117;28;20026;-67
2021/09/18 12:51:44;;;;;;;5.53;4.95;;;26.80;33.30;;;;;;5043909;28;20463;-68
2021/09/18 12:54:19;;;;;;;9.20;4.10;;;26.70;33.40;;;;;;5042136;28;20017;-67
2021/09/18 12:56:46;;;;;;;5.78;3.55;;;26.70;33.60;;;;;;5042139;28;20529;-68
2021/09/18 12:59:21;;;;;;;18.83;16.90;;;26.70;34.00;;;;;;5043089;28;20405;-67
2021/09/18 13:01:50;;;;;;;12.65;10.60;;;26.60;34.10;;;;;;5039760;28;20122;-68